Time;durP1;ratioP1;P1;durP2;ratioP2;P2;SDS_P1;SDS_P2;PMS_P1;PMS_P2;Temp;Humidity;BMP_temperature;BMP_pressure;BME280_temperature;BME280_humidity;BME280_pressure;Samples;Min_cycle;Max_cycle;Signal;HPM_P1;HPM_P2
2024/04/13 00:01:34;;;;;;;2.53;2.30;;;10.80;99.90;;;;;;5414247;26;20618;-64
2024/04/13 00:03:59;;;;;;;2.50;1.98;;;10.10;99.90;;;;;;5414361;26;20257;-64
2024/04/13 00:06:26;;;;;;;3.00;2.60;;;10.10;99.90;;;;;;5414373;26;20227;-64
2024/04/13 00:08:55;;;;;;;2.30;2.10;;;10.10;99.90;;;;;;5414127;26;20501;-64
2024/04/13 00:11:21;;;;;;;3.00;2.20;;;10.10;99.90;;;;;;5414205;26;20270;-64
2024/04/13 00:13:47;;;;;;;2.90;1.65;;;10.10;99.90;;;;;;5414313;26;20702;-64
2024/04/13 00:16:12;;;;;;;2.30;2.10;;;10.10;99.90;;;;;;5414258;26;20263;-63
2024/04/13 00:18:38;;;;;;;4.23;2.00;;;10.00;99.90;;;;;;5414090;26;20215;-63
2024/04/13 00:21:04;;;;;;;1.90;1.80;;;9.90;99.90;;;;;;5413776;26;20236;-64
2024/04/13 00:23:31;;;;;;;2.07;1.97;;;9.90;99.90;;;;;;5414115;26;20320;-64
2024/04/13 00:25:57;;;;;;;6.18;2.42;;;10.00;99.90;;;;;;5414151;26;20262;-64
2024/04/13 00:28:23;;;;;;;3.63;2.30;;;10.00;99.90;;;;;;5414169;26;20212;-64
2024/04/13 00:30:48;;;;;;;1.97;1.87;;;10.00;99.90;;;;;;5413554;26;20235;-64
2024/04/13 00:33:14;;;;;;;3.73;2.27;;;9.90;99.90;;;;;;5414000;26;20211;-64
2024/04/13 00:35:40;;;;;;;1.57;1.47;;;9.90;99.90;;;;;;5416959;26;20249;-64
2024/04/13 00:38:06;;;;;;;2.70;2.50;;;9.90;99.90;;;;;;5417620;26;20563;-64
2024/04/13 00:40:32;;;;;;;2.80;2.55;;;10.00;99.90;;;;;;5417090;26;20457;-64
2024/04/13 00:43:09;;;;;;;2.40;2.30;;;9.90;99.90;;;;;;5417600;26;20254;-64
2024/04/13 00:45:44;;;;;;;2.70;2.50;;;9.90;99.90;;;;;;5417514;26;20552;-64
2024/04/13 00:48:16;;;;;;;2.13;2.03;;;9.70;99.90;;;;;;5417594;26;20220;-64
2024/04/13 00:50:47;;;;;;;2.90;2.38;;;9.80;99.90;;;;;;5416960;26;20223;-64
2024/04/13 00:53:16;;;;;;;3.83;2.60;;;9.70;99.90;;;;;;5417706;26;20262;-64
2024/04/13 00:55:45;;;;;;;3.75;2.78;;;9.60;99.90;;;;;;5417526;26;20216;-64
2024/04/13 00:58:11;;;;;;;1.98;1.80;;;9.70;99.90;;;;;;5417257;26;20215;-63
2024/04/13 01:00:39;;;;;;;2.05;1.88;;;9.80;99.90;;;;;;5416882;26;20227;-63
2024/04/13 01:03:05;;;;;;;7.10;2.35;;;9.90;99.90;;;;;;5417302;26;20835;-64
2024/04/13 01:05:34;;;;;;;3.83;2.17;;;10.00;99.90;;;;;;5417259;26;20215;-64
2024/04/13 01:08:00;;;;;;;2.50;2.30;;;9.90;99.90;;;;;;5417152;26;20971;-64
2024/04/13 01:10:27;;;;;;;3.53;2.13;;;9.90;99.90;;;;;;5416673;26;20281;-64
2024/04/13 01:12:53;;;;;;;2.67;2.08;;;9.80;99.90;;;;;;5417095;26;20223;-64
2024/04/13 01:15:18;;;;;;;4.80;2.40;;;9.70;99.90;;;;;;5417407;26;20274;-64
2024/04/13 01:17:46;;;;;;;3.50;3.20;;;9.70;99.90;;;;;;5417047;26;20524;-64
2024/04/13 01:20:13;;;;;;;2.42;1.98;;;9.70;99.90;;;;;;5416461;26;20244;-64
2024/04/13 01:22:45;;;;;;;2.08;1.95;;;9.80;99.90;;;;;;5417065;26;20304;-64
2024/04/13 01:25:20;;;;;;;3.70;2.00;;;9.80;99.90;;;;;;5417011;26;20327;-63
2024/04/13 01:27:46;;;;;;;4.10;2.90;;;9.80;99.90;;;;;;5416852;26;20323;-64
2024/04/13 01:30:15;;;;;;;2.42;2.05;;;9.70;99.90;;;;;;5416455;26;20666;-64
2024/04/13 01:32:41;;;;;;;2.38;2.17;;;9.60;99.90;;;;;;5416739;26;20287;-64
2024/04/13 01:35:08;;;;;;;2.77;2.57;;;9.70;99.90;;;;;;5416801;26;20215;-64
2024/04/13 01:37:33;;;;;;;2.92;1.88;;;9.70;99.90;;;;;;5416647;26;20253;-64
2024/04/13 01:39:59;;;;;;;2.23;2.03;;;9.70;99.90;;;;;;5416138;26;20594;-64
2024/04/13 01:42:24;;;;;;;2.70;1.93;;;9.70;99.90;;;;;;5416854;26;20246;-63
2024/04/13 01:44:50;;;;;;;2.13;2.03;;;9.70;99.90;;;;;;5416750;26;20212;-64
2024/04/13 01:47:17;;;;;;;3.53;2.70;;;9.70;99.90;;;;;;5415663;26;20568;-64
2024/04/13 01:49:42;;;;;;;2.03;1.92;;;9.70;99.90;;;;;;5416006;26;20303;-63
2024/04/13 01:52:08;;;;;;;5.40;3.87;;;9.70;99.90;;;;;;5416207;26;20215;-64
2024/04/13 01:54:34;;;;;;;4.72;2.60;;;9.70;99.90;;;;;;5416598;26;20215;-63
2024/04/13 01:57:00;;;;;;;2.93;2.63;;;9.60;99.90;;;;;;5416598;26;20598;-64
2024/04/13 01:59:25;;;;;;;3.03;2.83;;;9.60;99.90;;;;;;5416348;26;20223;-64
2024/04/13 02:01:51;;;;;;;4.03;2.90;;;9.60;99.90;;;;;;5416252;26;20216;-64
2024/04/13 02:04:16;;;;;;;2.83;2.20;;;9.50;99.90;;;;;;5414145;26;20578;-64
2024/04/13 02:06:42;;;;;;;5.00;2.03;;;9.50;99.90;;;;;;5451524;26;20230;-64
2024/04/13 02:09:07;;;;;;;4.83;2.70;;;9.60;99.90;;;;;;5452134;26;20248;-63
2024/04/13 02:11:33;;;;;;;3.07;2.87;;;9.60;99.90;;;;;;5452215;26;20246;-64
2024/04/13 02:13:59;;;;;;;3.93;2.40;;;9.60;99.90;;;;;;5452246;26;20257;-64
2024/04/13 02:16:24;;;;;;;2.50;2.30;;;9.60;99.90;;;;;;5452118;26;20687;-64
2024/04/13 02:18:50;;;;;;;4.00;2.67;;;9.70;99.90;;;;;;5451871;26;20211;-63
2024/04/13 02:21:16;;;;;;;3.00;2.70;;;9.50;99.90;;;;;;5451863;26;20249;-63
2024/04/13 02:23:41;;;;;;;3.20;2.30;;;9.40;99.90;;;;;;5452100;26;20359;-64
2024/04/13 02:26:07;;;;;;;2.30;2.10;;;9.40;99.90;;;;;;5452121;26;20574;-64
2024/04/13 02:28:33;;;;;;;2.83;2.63;;;9.40;99.90;;;;;;5452199;26;20256;-64
2024/04/13 02:30:59;;;;;;;2.70;2.10;;;9.50;99.90;;;;;;5451591;26;20226;-64
2024/04/13 02:33:24;;;;;;;5.43;2.27;;;9.50;99.90;;;;;;5451898;26;20214;-64
2024/04/13 02:36:00;;;;;;;2.90;2.70;;;9.50;99.90;;;;;;5451916;26;20440;-64
2024/04/13 02:38:26;;;;;;;4.70;2.72;;;9.40;99.90;;;;;;5451819;26;20265;-64
2024/04/13 02:40:59;;;;;;;3.37;3.03;;;9.40;99.90;;;;;;5451582;26;20281;-64
2024/04/13 02:43:31;;;;;;;3.90;2.78;;;9.50;99.90;;;;;;5452059;26;20779;-64
2024/04/13 02:46:08;;;;;;;2.85;2.47;;;9.50;99.90;;;;;;5452212;26;20211;-64
2024/04/13 02:48:47;;;;;;;3.33;2.38;;;9.50;99.90;;;;;;5451965;26;20210;-64
2024/04/13 02:51:14;;;;;;;3.17;2.97;;;9.50;99.90;;;;;;5452097;26;20262;-64
2024/04/13 02:53:39;;;;;;;2.40;2.00;;;9.50;99.90;;;;;;5452038;26;20742;-63
2024/04/13 02:56:06;;;;;;;2.37;2.20;;;9.50;99.90;;;;;;5420363;26;20214;-64
2024/04/13 02:58:32;;;;;;;4.55;2.33;;;9.20;99.90;;;;;;5450034;26;20222;-63
2024/04/13 03:00:59;;;;;;;3.03;2.72;;;9.30;99.90;;;;;;5451418;26;20704;-64
2024/04/13 03:03:25;;;;;;;3.15;2.85;;;9.20;99.90;;;;;;5451550;26;20221;-64
2024/04/13 03:06:02;;;;;;;4.78;3.10;;;9.20;99.90;;;;;;5451990;26;20257;-63
2024/04/13 03:08:28;;;;;;;2.70;2.50;;;9.30;99.90;;;;;;5452426;26;20269;-63
2024/04/13 03:10:55;;;;;;;2.40;2.20;;;9.40;99.90;;;;;;5451492;26;20226;-64
2024/04/13 03:13:21;;;;;;;5.50;3.58;;;9.40;99.90;;;;;;5451384;26;20431;-64
2024/04/13 03:16:01;;;;;;;2.60;2.40;;;9.40;99.90;;;;;;5451603;26;20222;-63
2024/04/13 03:18:27;;;;;;;3.40;2.92;;;9.30;99.90;;;;;;5451415;26;20210;-63
2024/04/13 03:20:53;;;;;;;2.50;2.30;;;9.30;99.90;;;;;;5450917;26;20310;-64
2024/04/13 03:23:18;;;;;;;7.57;3.03;;;9.20;99.90;;;;;;5451373;26;20366;-63
2024/04/13 03:25:44;;;;;;;2.97;2.67;;;9.30;99.90;;;;;;5451569;26;20661;-64
2024/04/13 03:28:10;;;;;;;2.37;2.17;;;9.30;99.90;;;;;;5451220;26;20222;-63
2024/04/13 03:30:39;;;;;;;5.03;2.90;;;9.50;99.90;;;;;;5450777;26;20619;-63
2024/04/13 03:33:05;;;;;;;3.45;2.90;;;9.40;99.90;;;;;;5451073;26;20297;-64
2024/04/13 03:35:38;;;;;;;2.58;2.38;;;9.40;99.90;;;;;;5451062;26;20311;-64
2024/04/13 03:38:06;;;;;;;4.15;3.15;;;9.30;99.90;;;;;;5451073;26;20210;-63
2024/04/13 03:40:36;;;;;;;4.68;2.40;;;9.30;99.90;;;;;;5450608;26;20243;-64
2024/04/13 03:43:03;;;;;;;3.42;3.15;;;9.30;99.90;;;;;;5450832;26;20213;-64
2024/04/13 03:45:28;;;;;;;2.78;2.58;;;9.30;99.90;;;;;;5451122;26;20253;-63
2024/04/13 03:47:55;;;;;;;2.70;2.37;;;9.30;99.90;;;;;;5451008;26;20210;-63
2024/04/13 03:50:20;;;;;;;2.75;2.55;;;9.30;99.90;;;;;;5450534;26;20226;-64
2024/04/13 03:52:46;;;;;;;3.40;3.00;;;9.30;99.90;;;;;;5450737;26;20739;-63
2024/04/13 03:55:11;;;;;;;2.47;2.10;;;9.20;99.90;;;;;;5450580;26;20296;-64
2024/04/13 03:57:37;;;;;;;2.53;2.33;;;9.30;99.90;;;;;;5450790;26;20214;-64
2024/04/13 04:00:06;;;;;;;2.47;2.00;;;9.30;99.90;;;;;;5450554;26;20231;-63
2024/04/13 04:02:36;;;;;;;3.70;3.40;;;9.30;99.90;;;;;;5450822;26;20226;-64
2024/04/13 04:05:02;;;;;;;4.30;2.35;;;9.30;99.90;;;;;;5450798;26;20265;-63
2024/04/13 04:07:28;;;;;;;2.40;2.20;;;9.30;99.90;;;;;;5450557;26;20647;-63
2024/04/13 04:09:54;;;;;;;2.47;2.27;;;9.40;99.90;;;;;;5451895;26;20226;-63
2024/04/13 04:12:19;;;;;;;2.30;2.10;;;9.30;99.90;;;;;;5454202;26;20325;-64
2024/04/13 04:14:45;;;;;;;2.20;2.00;;;9.30;99.90;;;;;;5454401;26;20711;-63
2024/04/13 04:17:11;;;;;;;2.27;2.07;;;9.20;99.90;;;;;;5454182;26;20319;-63
2024/04/13 04:19:36;;;;;;;3.00;2.13;;;9.20;99.90;;;;;;5453841;26;20549;-64
2024/04/13 04:22:02;;;;;;;6.60;3.10;;;9.30;99.90;;;;;;5453713;26;20329;-63
2024/04/13 04:24:28;;;;;;;4.67;2.53;;;9.20;99.90;;;;;;5454004;26;20214;-64
2024/04/13 04:26:53;;;;;;;2.70;2.50;;;9.20;99.90;;;;;;5453815;26;20327;-64
2024/04/13 04:29:19;;;;;;;3.80;2.37;;;9.20;99.90;;;;;;5453508;26;20226;-64
2024/04/13 04:31:44;;;;;;;3.13;2.43;;;9.20;99.90;;;;;;5453657;26;20819;-64
2024/04/13 04:34:10;;;;;;;4.27;2.67;;;9.30;99.90;;;;;;5453793;26;20323;-64
2024/04/13 04:36:36;;;;;;;2.87;2.67;;;9.20;99.90;;;;;;5453751;26;20210;-64
2024/04/13 04:39:02;;;;;;;5.53;2.30;;;9.10;99.90;;;;;;5453424;26;20257;-63
2024/04/13 04:41:28;;;;;;;2.15;2.05;;;9.10;99.90;;;;;;5453654;26;20273;-64
2024/04/13 04:43:54;;;;;;;5.27;2.63;;;9.10;99.90;;;;;;5453653;26;20219;-64
2024/04/13 04:46:21;;;;;;;2.80;2.60;;;9.10;99.90;;;;;;5453672;26;20257;-64
2024/04/13 04:48:50;;;;;;;3.30;2.50;;;9.20;99.90;;;;;;5453815;26;20211;-64
2024/04/13 04:51:19;;;;;;;5.80;3.17;;;9.20;99.90;;;;;;5453154;26;20235;-64
2024/04/13 04:53:45;;;;;;;4.40;3.13;;;9.10;99.90;;;;;;5453579;26;20671;-63
2024/04/13 04:56:11;;;;;;;4.47;2.43;;;9.10;99.90;;;;;;5453421;26;20222;-64
2024/04/13 04:58:36;;;;;;;3.37;2.57;;;9.20;99.90;;;;;;5453564;26;20260;-64
2024/04/13 05:01:03;;;;;;;6.30;2.63;;;9.30;99.90;;;;;;5452914;26;20223;-64
2024/04/13 05:03:29;;;;;;;3.65;3.03;;;9.30;99.90;;;;;;5453068;26;20261;-64
2024/04/13 05:05:54;;;;;;;2.70;2.50;;;9.30;99.90;;;;;;5451020;26;20222;-63
2024/04/13 05:08:21;;;;;;;2.87;2.60;;;9.20;99.90;;;;;;5452260;26;20273;-64
2024/04/13 05:10:47;;;;;;;14.25;2.67;;;9.30;99.90;;;;;;5452663;26;20280;-64
2024/04/13 05:13:14;;;;;;;2.50;2.30;;;9.30;99.90;;;;;;5448670;26;20277;-63
2024/04/13 05:15:40;;;;;;;7.70;6.85;;;9.30;99.90;;;;;;5453197;26;20254;-64
2024/04/13 05:18:06;;;;;;;3.28;2.50;;;9.30;99.90;;;;;;5453319;26;20218;-63
2024/04/13 05:20:33;;;;;;;3.83;2.70;;;9.20;99.90;;;;;;5451796;26;20239;-63
2024/04/13 05:22:59;;;;;;;1.90;1.80;;;9.30;99.90;;;;;;5451704;26;20265;-63
2024/04/13 05:25:25;;;;;;;2.93;2.73;;;9.50;99.90;;;;;;5454772;26;20215;-63
2024/04/13 05:27:51;;;;;;;2.33;2.20;;;9.60;99.90;;;;;;5452059;26;20331;-63
2024/04/13 05:30:16;;;;;;;3.00;2.57;;;9.70;99.90;;;;;;5453847;26;20230;-62
2024/04/13 05:32:42;;;;;;;2.47;2.27;;;9.70;99.90;;;;;;5454039;26;20214;-63
2024/04/13 05:35:07;;;;;;;2.70;2.50;;;9.80;99.90;;;;;;5454110;26;20207;-62
2024/04/13 05:37:34;;;;;;;2.60;2.23;;;9.90;99.90;;;;;;5454210;26;20280;-63
2024/04/13 05:39:59;;;;;;;4.93;2.00;;;9.90;99.90;;;;;;5453995;26;20234;-63
2024/04/13 05:42:25;;;;;;;3.27;2.50;;;10.10;99.90;;;;;;5454481;26;20672;-62
2024/04/13 05:44:51;;;;;;;2.43;2.10;;;10.40;99.90;;;;;;5454313;26;20215;-63
2024/04/13 05:47:17;;;;;;;2.73;2.53;;;11.00;99.90;;;;;;5453918;26;20255;-63
2024/04/13 05:49:43;;;;;;;2.17;1.97;;;12.00;99.90;;;;;;5453310;26;20968;-63
2024/04/13 05:52:08;;;;;;;3.53;1.50;;;13.50;99.90;;;;;;5452970;26;20743;-63
2024/04/13 05:54:34;;;;;;;2.47;1.57;;;15.20;95.80;;;;;;5453232;26;20440;-64
2024/04/13 05:57:00;;;;;;;3.27;1.40;;;16.50;92.60;;;;;;5453053;26;20765;-63
2024/04/13 05:59:25;;;;;;;1.50;1.40;;;17.40;90.80;;;;;;5450371;26;20339;-63
2024/04/13 06:01:51;;;;;;;1.50;1.40;;;17.90;87.30;;;;;;5452874;26;20231;-63
2024/04/13 06:04:17;;;;;;;2.23;1.37;;;18.10;84.00;;;;;;5452871;26;20224;-65
2024/04/13 06:06:42;;;;;;;2.07;1.27;;;18.00;83.70;;;;;;5452805;26;20211;-65
2024/04/13 06:09:08;;;;;;;1.53;1.43;;;17.90;83.90;;;;;;5452513;26;20269;-65
2024/04/13 06:11:34;;;;;;;2.33;2.23;;;17.70;83.90;;;;;;5452135;26;20233;-63
2024/04/13 06:13:59;;;;;;;1.67;1.57;;;17.60;85.10;;;;;;5452469;26;20322;-65
2024/04/13 06:16:25;;;;;;;2.40;2.30;;;17.40;84.10;;;;;;5452415;26;20214;-64
2024/04/13 06:18:52;;;;;;;2.67;1.97;;;17.30;83.80;;;;;;5449816;26;20288;-65
2024/04/13 06:21:18;;;;;;;1.77;1.63;;;17.00;85.10;;;;;;5451909;26;20284;-65
2024/04/13 06:23:43;;;;;;;5.07;3.03;;;16.70;86.20;;;;;;5452366;26;20434;-64
2024/04/13 06:26:09;;;;;;;3.00;2.70;;;16.40;87.50;;;;;;5451891;26;20428;-64
2024/04/13 06:28:35;;;;;;;4.93;4.00;;;16.00;88.60;;;;;;5452084;26;20552;-64
2024/04/13 06:31:01;;;;;;;3.90;3.13;;;16.00;89.50;;;;;;5449024;26;20700;-65
2024/04/13 06:33:27;;;;;;;3.13;2.87;;;15.90;88.10;;;;;;5451654;26;20501;-64
2024/04/13 06:35:52;;;;;;;2.60;2.40;;;16.00;89.70;;;;;;5452128;26;20214;-64
2024/04/13 06:38:23;;;;;;;4.37;2.30;;;16.00;90.00;;;;;;5451789;26;20219;-64
2024/04/13 06:40:49;;;;;;;2.77;1.67;;;16.20;90.40;;;;;;5451580;26;20578;-65
2024/04/13 06:43:15;;;;;;;4.63;2.10;;;16.10;89.00;;;;;;5452135;26;20798;-64
2024/04/13 06:45:41;;;;;;;2.50;1.93;;;16.10;89.80;;;;;;5452323;26;20515;-64
2024/04/13 06:48:07;;;;;;;1.87;1.70;;;16.20;90.50;;;;;;5451905;26;20222;-64
2024/04/13 06:50:32;;;;;;;3.67;2.10;;;16.40;90.20;;;;;;5451522;26;20235;-64
2024/04/13 06:52:58;;;;;;;2.03;1.77;;;16.60;89.00;;;;;;5451927;26;20899;-64
2024/04/13 06:55:23;;;;;;;2.27;1.83;;;16.60;89.00;;;;;;5451671;26;20291;-64
2024/04/13 06:57:49;;;;;;;7.13;1.60;;;16.80;87.40;;;;;;5451836;26;20214;-65
2024/04/13 07:00:15;;;;;;;2.03;1.77;;;17.00;87.80;;;;;;5451365;26;20796;-64
2024/04/13 07:02:43;;;;;;;4.03;2.50;;;17.20;88.60;;;;;;5451469;26;20748;-64
2024/04/13 07:05:09;;;;;;;1.87;1.77;;;17.20;88.30;;;;;;5451756;26;20504;-64
2024/04/13 07:07:35;;;;;;;1.93;1.60;;;17.50;86.40;;;;;;5451400;26;20505;-64
2024/04/13 07:10:01;;;;;;;2.23;2.03;;;17.60;86.60;;;;;;5451029;26;20228;-65
2024/04/13 07:12:26;;;;;;;2.63;2.30;;;18.00;85.90;;;;;;5451570;26;20218;-65
2024/04/13 07:14:53;;;;;;;5.50;1.80;;;18.60;84.50;;;;;;5435482;26;20464;-65
2024/04/13 07:17:19;;;;;;;4.50;2.10;;;19.30;81.20;;;;;;5437382;26;20233;-65
2024/04/13 07:19:44;;;;;;;2.23;1.97;;;20.40;78.30;;;;;;5450432;26;20855;-64
2024/04/13 07:22:10;;;;;;;1.73;1.60;;;21.50;73.90;;;;;;5451123;26;20743;-65
2024/04/13 07:24:37;;;;;;;4.57;1.70;;;23.00;69.70;;;;;;5451196;26;20828;-65
2024/04/13 07:27:03;;;;;;;3.33;1.90;;;24.60;62.00;;;;;;5450978;26;20596;-65
2024/04/13 07:29:28;;;;;;;4.00;1.80;;;26.10;58.20;;;;;;5449635;26;20508;-65
2024/04/13 07:31:54;;;;;;;5.13;1.70;;;27.40;54.50;;;;;;5451453;26;20214;-65
2024/04/13 07:34:19;;;;;;;1.43;1.33;;;28.80;50.00;;;;;;5451590;26;20210;-65
2024/04/13 07:36:46;;;;;;;1.30;1.20;;;30.00;46.70;;;;;;5451300;26;20264;-65
2024/04/13 07:39:12;;;;;;;3.97;1.90;;;30.80;42.90;;;;;;5450973;26;20222;-65
2024/04/13 07:41:39;;;;;;;2.20;1.10;;;31.50;43.40;;;;;;5450790;26;20463;-65
2024/04/13 07:44:05;;;;;;;3.83;1.47;;;32.10;41.00;;;;;;5451571;26;20439;-66
2024/04/13 07:46:31;;;;;;;1.20;1.10;;;32.30;40.10;;;;;;5454265;26;20536;-65
2024/04/13 07:48:57;;;;;;;3.80;1.17;;;32.60;38.50;;;;;;5454619;26;20214;-65
2024/04/13 07:51:22;;;;;;;2.33;2.10;;;33.40;38.10;;;;;;5454153;26;20881;-65
2024/04/13 07:53:48;;;;;;;2.10;1.90;;;34.30;36.60;;;;;;5454738;26;20210;-66
2024/04/13 07:56:14;;;;;;;2.20;0.90;;;35.10;35.60;;;;;;5454583;26;20306;-66
2024/04/13 07:58:41;;;;;;;5.60;1.23;;;36.00;34.70;;;;;;5454402;26;20226;-66
2024/04/13 08:01:06;;;;;;;1.30;1.20;;;36.50;32.70;;;;;;5454122;26;20269;-65
2024/04/13 08:03:32;;;;;;;1.20;1.10;;;36.90;31.20;;;;;;5422937;26;20854;-65
2024/04/13 08:05:58;;;;;;;1.77;1.00;;;37.30;30.70;;;;;;5454646;26;20215;-65
2024/04/13 08:08:23;;;;;;;1.30;1.20;;;37.80;30.20;;;;;;5454574;26;20389;-65
2024/04/13 08:10:49;;;;;;;3.27;1.60;;;38.00;29.10;;;;;;5454021;26;20242;-66
2024/04/13 08:13:15;;;;;;;1.93;1.40;;;38.20;29.10;;;;;;5453882;26;20257;-65
2024/04/13 08:15:41;;;;;;;3.97;1.90;;;38.60;28.80;;;;;;5453976;26;20294;-65
2024/04/13 08:18:07;;;;;;;1.50;1.40;;;39.00;28.80;;;;;;5454134;26;20565;-66
2024/04/13 08:20:33;;;;;;;1.60;1.50;;;38.60;28.70;;;;;;5453618;26;20226;-65
2024/04/13 08:22:59;;;;;;;1.23;1.17;;;38.60;28.90;;;;;;5453982;26;20969;-66
2024/04/13 08:25:26;;;;;;;2.03;1.37;;;38.70;28.70;;;;;;5453914;26;20452;-64
2024/04/13 08:27:52;;;;;;;1.87;1.20;;;39.00;28.50;;;;;;5454313;26;20432;-63
2024/04/13 08:30:17;;;;;;;1.33;1.10;;;39.50;28.20;;;;;;5453786;26;21061;-64
2024/04/13 08:32:48;;;;;;;1.37;1.27;;;39.80;27.70;;;;;;5454429;26;20257;-63
2024/04/13 08:35:13;;;;;;;1.80;1.53;;;39.40;26.70;;;;;;5454676;26;20253;-64
2024/04/13 08:37:39;;;;;;;1.27;0.97;;;39.00;27.90;;;;;;5454046;26;20440;-63
2024/04/13 08:40:05;;;;;;;2.57;1.23;;;38.90;27.00;;;;;;5453821;26;20294;-63
2024/04/13 08:42:34;;;;;;;0.93;0.93;;;38.90;27.00;;;;;;5417042;21;20261;-61
2024/04/13 08:45:00;;;;;;;2.93;1.20;;;38.80;27.00;;;;;;5347181;26;21042;-62
2024/04/13 08:47:31;;;;;;;4.83;1.30;;;38.60;27.00;;;;;;5347012;26;21049;-62
2024/04/13 08:49:58;;;;;;;1.27;0.80;;;38.80;27.00;;;;;;5346616;26;20519;-63
2024/04/13 08:52:25;;;;;;;4.30;1.07;;;38.80;27.30;;;;;;5346861;26;20517;-63
2024/04/13 08:54:51;;;;;;;0.90;0.90;;;38.50;26.30;;;;;;5346932;26;20448;-63
2024/04/13 08:57:24;;;;;;;1.00;0.90;;;37.90;26.10;;;;;;5345839;26;20464;-63
2024/04/13 08:59:51;;;;;;;2.47;1.37;;;37.30;25.50;;;;;;5345049;26;20221;-63
2024/04/13 09:02:22;;;;;;;2.50;1.30;;;36.90;26.80;;;;;;5345760;26;20510;-63
2024/04/13 09:04:50;;;;;;;1.93;1.33;;;37.00;27.00;;;;;;5346540;26;20448;-62
2024/04/13 09:07:20;;;;;;;2.30;1.23;;;36.90;26.50;;;;;;5346748;26;20491;-62
2024/04/13 09:09:48;;;;;;;1.17;0.90;;;36.60;26.80;;;;;;5346642;26;20444;-62
2024/04/13 09:12:14;;;;;;;1.87;1.30;;;35.90;26.80;;;;;;5345929;26;20459;-62
2024/04/13 09:14:39;;;;;;;3.80;1.00;;;35.70;27.90;;;;;;5346735;26;20547;-61
2024/04/13 09:17:05;;;;;;;6.43;2.27;;;35.60;27.90;;;;;;5346632;26;20459;-62
2024/04/13 09:19:32;;;;;;;1.80;1.23;;;35.70;27.50;;;;;;5346563;26;20688;-63
2024/04/13 09:21:58;;;;;;;2.57;1.90;;;36.00;28.10;;;;;;5346726;26;20303;-62
2024/04/13 09:24:24;;;;;;;2.27;1.40;;;35.20;26.90;;;;;;5346723;26;20809;-62
2024/04/13 09:26:51;;;;;;;4.40;1.23;;;34.80;28.20;;;;;;5346542;26;20504;-62
2024/04/13 09:29:27;;;;;;;1.90;1.27;;;34.90;27.70;;;;;;5346305;26;20507;-62
2024/04/13 09:31:53;;;;;;;1.57;1.47;;;34.60;27.90;;;;;;5346230;26;20817;-62
2024/04/13 09:34:19;;;;;;;1.17;1.07;;;34.00;28.70;;;;;;5346393;26;21102;-62
2024/04/13 09:36:47;;;;;;;3.13;1.30;;;33.10;28.90;;;;;;5346605;26;20448;-62
2024/04/13 09:39:23;;;;;;;2.90;1.10;;;32.40;30.00;;;;;;5346358;26;20533;-62
2024/04/13 09:41:49;;;;;;;1.40;1.30;;;32.10;30.20;;;;;;5345910;26;20519;-62
2024/04/13 09:44:30;;;;;;;0.90;0.90;;;32.20;28.90;;;;;;5346000;26;20456;-63
2024/04/13 09:46:56;;;;;;;0.70;0.70;;;32.20;29.20;;;;;;5346180;26;20785;-61
2024/04/13 09:49:22;;;;;;;1.73;1.17;;;31.90;29.10;;;;;;5345949;26;20440;-62
2024/04/13 09:51:50;;;;;;;7.10;1.37;;;31.90;29.30;;;;;;5345793;26;20889;-62
2024/04/13 09:54:16;;;;;;;1.83;1.20;;;31.80;29.10;;;;;;5346064;26;20264;-62
2024/04/13 09:56:46;;;;;;;1.17;1.00;;;32.00;29.60;;;;;;5346067;26;20497;-62
2024/04/13 09:59:17;;;;;;;1.53;1.03;;;32.10;28.80;;;;;;5345952;26;20500;-62
2024/04/13 10:01:44;;;;;;;1.40;1.30;;;32.30;29.40;;;;;;5345786;26;20456;-62
2024/04/13 10:04:09;;;;;;;3.47;1.50;;;32.50;30.00;;;;;;5345988;26;20456;-62
2024/04/13 10:06:37;;;;;;;1.00;0.97;;;32.00;30.90;;;;;;5345464;26;20444;-63
2024/04/13 10:09:06;;;;;;;4.53;1.40;;;31.30;29.80;;;;;;5345628;26;20757;-62
2024/04/13 10:11:38;;;;;;;0.90;0.90;;;31.10;30.80;;;;;;5345753;26;20468;-62
2024/04/13 10:14:05;;;;;;;0.97;0.80;;;31.10;30.50;;;;;;5346086;26;20492;-62
2024/04/13 10:16:31;;;;;;;2.23;1.00;;;30.60;30.00;;;;;;5345936;26;20500;-62
2024/04/13 10:18:59;;;;;;;1.73;1.10;;;30.40;31.70;;;;;;5345660;26;20444;-62
2024/04/13 10:21:25;;;;;;;1.53;1.43;;;30.20;32.00;;;;;;5345529;26;20444;-62
2024/04/13 10:23:54;;;;;;;1.03;0.87;;;30.20;32.20;;;;;;5345689;26;20629;-61
2024/04/13 10:26:27;;;;;;;1.33;1.10;;;30.20;32.40;;;;;;5345783;26;20221;-62
2024/04/13 10:29:01;;;;;;;1.43;1.10;;;30.50;31.70;;;;;;5345510;26;20969;-61
2024/04/13 10:31:28;;;;;;;1.50;1.33;;;30.00;32.90;;;;;;5345444;26;20461;-62
2024/04/13 10:33:55;;;;;;;3.47;1.33;;;29.80;33.50;;;;;;5345697;26;20501;-62
2024/04/13 10:36:31;;;;;;;0.93;0.93;;;29.60;33.80;;;;;;5345584;26;20504;-62
2024/04/13 10:38:58;;;;;;;1.30;1.20;;;29.50;32.90;;;;;;5345476;26;20511;-62
2024/04/13 10:41:33;;;;;;;1.70;1.03;;;29.10;34.40;;;;;;5345183;26;20520;-62
2024/04/13 10:44:00;;;;;;;1.40;1.30;;;28.80;35.40;;;;;;5345619;26;20451;-61
2024/04/13 10:46:26;;;;;;;1.30;1.13;;;28.80;34.70;;;;;;5345437;26;20940;-62
2024/04/13 10:48:55;;;;;;;1.50;1.40;;;28.60;34.30;;;;;;5345167;26;20460;-62
2024/04/13 10:51:21;;;;;;;1.30;1.20;;;28.30;34.90;;;;;;5345631;26;20256;-62
2024/04/13 10:53:47;;;;;;;1.47;1.37;;;28.00;35.20;;;;;;5345418;26;20855;-61
2024/04/13 10:56:13;;;;;;;1.60;1.50;;;27.60;36.20;;;;;;5345325;26;20512;-62
2024/04/13 10:58:39;;;;;;;1.60;1.50;;;27.50;36.70;;;;;;5345311;26;20436;-61
2024/04/13 11:01:08;;;;;;;1.70;1.60;;;27.20;36.90;;;;;;5344715;26;20218;-61
2024/04/13 11:03:34;;;;;;;1.20;1.13;;;26.90;36.40;;;;;;5344775;26;20230;-61
2024/04/13 11:06:00;;;;;;;1.27;1.20;;;26.30;37.40;;;;;;5345206;26;20448;-61
2024/04/13 11:08:27;;;;;;;1.00;1.00;;;26.20;37.20;;;;;;5345283;26;20481;-62
2024/04/13 11:10:54;;;;;;;1.47;1.30;;;26.00;37.70;;;;;;5344201;26;20535;-61
2024/04/13 11:13:20;;;;;;;1.10;1.10;;;26.00;38.40;;;;;;5345076;26;20579;-61
2024/04/13 11:15:46;;;;;;;1.20;1.13;;;26.20;37.80;;;;;;5344804;26;20826;-62
2024/04/13 11:18:12;;;;;;;1.50;1.40;;;25.90;37.90;;;;;;5344254;26;20571;-62
2024/04/13 11:20:40;;;;;;;1.40;1.30;;;25.90;37.30;;;;;;5343556;26;20448;-62
2024/04/13 11:23:06;;;;;;;1.60;1.50;;;26.10;36.90;;;;;;5344849;26;20754;-62
2024/04/13 11:25:33;;;;;;;1.30;1.20;;;26.20;37.00;;;;;;5344914;26;20549;-62
2024/04/13 11:27:59;;;;;;;1.50;1.40;;;26.20;36.60;;;;;;5344960;26;20757;-62
2024/04/13 11:30:25;;;;;;;2.07;1.33;;;26.20;37.40;;;;;;5344397;26;20500;-62
2024/04/13 11:32:51;;;;;;;1.07;0.97;;;26.30;35.90;;;;;;5344599;26;20432;-61
2024/04/13 11:35:17;;;;;;;1.67;1.57;;;26.10;35.50;;;;;;5344715;26;20613;-62
2024/04/13 11:37:54;;;;;;;4.67;1.93;;;26.10;37.20;;;;;;5344662;26;20416;-61
2024/04/13 11:40:20;;;;;;;1.90;1.80;;;26.10;36.20;;;;;;5344254;26;20953;-61
2024/04/13 11:42:48;;;;;;;1.63;1.53;;;25.70;36.00;;;;;;5357642;26;20510;-61
2024/04/13 11:45:14;;;;;;;1.50;1.40;;;25.40;36.80;;;;;;5344582;26;20622;-62
2024/04/13 11:47:40;;;;;;;1.50;1.40;;;25.10;37.40;;;;;;5340571;26;20505;-62
2024/04/13 11:50:06;;;;;;;1.57;1.30;;;25.10;37.70;;;;;;5342687;26;20251;-61
2024/04/13 11:52:32;;;;;;;1.73;1.57;;;25.20;37.80;;;;;;5344152;26;20229;-61
2024/04/13 11:54:58;;;;;;;2.93;1.83;;;25.40;37.40;;;;;;5343983;26;20464;-61
2024/04/13 11:57:23;;;;;;;1.67;1.57;;;25.40;37.50;;;;;;5344184;26;20315;-62
2024/04/13 11:59:49;;;;;;;1.40;1.30;;;25.50;37.00;;;;;;5344419;26;20676;-62
2024/04/13 12:02:15;;;;;;;1.93;1.27;;;25.50;37.40;;;;;;5344749;26;20268;-61
2024/04/13 12:04:40;;;;;;;1.77;1.67;;;25.50;38.00;;;;;;5344388;26;20225;-62
2024/04/13 12:07:12;;;;;;;1.63;1.33;;;25.30;37.90;;;;;;5344265;26;20214;-61
2024/04/13 12:09:38;;;;;;;2.17;1.50;;;25.00;38.70;;;;;;5344019;26;20260;-62
2024/04/13 12:12:07;;;;;;;3.10;2.47;;;25.00;38.90;;;;;;5343675;26;20456;-61
2024/04/13 12:14:35;;;;;;;1.73;1.63;;;25.10;38.80;;;;;;5344012;26;20559;-61
2024/04/13 12:17:00;;;;;;;1.80;1.60;;;25.20;40.00;;;;;;5343900;26;20451;-61
2024/04/13 12:19:26;;;;;;;2.10;1.90;;;25.30;39.00;;;;;;5343828;26;20934;-61
2024/04/13 12:21:52;;;;;;;2.30;1.47;;;25.30;38.50;;;;;;5343532;26;20233;-61
2024/04/13 12:24:17;;;;;;;2.30;1.50;;;25.00;38.90;;;;;;5343861;26;20210;-61
2024/04/13 12:26:43;;;;;;;2.87;2.07;;;24.80;39.40;;;;;;5343633;26;20260;-62
2024/04/13 12:29:09;;;;;;;1.67;1.57;;;24.80;39.50;;;;;;5343691;26;20598;-62
2024/04/13 12:31:34;;;;;;;1.30;1.20;;;24.60;38.70;;;;;;5346177;26;20770;-62
2024/04/13 12:34:00;;;;;;;1.77;1.47;;;24.50;39.50;;;;;;5347212;26;20217;-62
2024/04/13 12:36:26;;;;;;;1.33;1.20;;;24.50;38.60;;;;;;5347337;26;20260;-62
2024/04/13 12:38:54;;;;;;;1.57;1.43;;;24.40;38.50;;;;;;5347029;26;20287;-62
2024/04/13 12:41:20;;;;;;;1.80;1.20;;;24.30;38.50;;;;;;5346712;26;20557;-62
2024/04/13 12:43:45;;;;;;;2.10;1.73;;;24.20;38.40;;;;;;5347208;26;20479;-62
2024/04/13 12:46:11;;;;;;;1.50;1.33;;;24.20;38.80;;;;;;5347020;26;20443;-62
2024/04/13 12:48:38;;;;;;;1.33;1.07;;;24.20;37.80;;;;;;5346832;26;20222;-61